sensor_id;sensor_type;location;lat;lon;timestamp;P1;durP1;ratioP1;P2;durP2;ratioP2
70385;SDS011;63206;55.650;37.500;2022-12-11T00:02:28;17.60;;;6.97;;
70385;SDS011;63206;55.650;37.500;2022-12-11T00:04:57;18.02;;;6.47;;
70385;SDS011;63206;55.650;37.500;2022-12-11T00:07:27;19.58;;;6.72;;
70385;SDS011;63206;55.650;37.500;2022-12-11T00:10:01;19.40;;;6.78;;
70385;SDS011;63206;55.650;37.500;2022-12-11T00:12:30;16.30;;;6.57;;
70385;SDS011;63206;55.650;37.500;2022-12-11T00:15:02;17.63;;;6.03;;
70385;SDS011;63206;55.650;37.500;2022-12-11T00:17:30;16.73;;;6.53;;
70385;SDS011;63206;55.650;37.500;2022-12-11T00:20:02;18.77;;;6.20;;
70385;SDS011;63206;55.650;37.500;2022-12-11T00:22:31;16.65;;;6.70;;
70385;SDS011;63206;55.650;37.500;2022-12-11T00:25:05;21.63;;;6.95;;
70385;SDS011;63206;55.650;37.500;2022-12-11T00:27:36;20.67;;;7.10;;
70385;SDS011;63206;55.650;37.500;2022-12-11T00:30:03;19.33;;;6.55;;
70385;SDS011;63206;55.650;37.500;2022-12-11T00:32:31;20.33;;;6.78;;
70385;SDS011;63206;55.650;37.500;2022-12-11T00:35:00;18.58;;;6.55;;
70385;SDS011;63206;55.650;37.500;2022-12-11T00:37:32;16.65;;;5.93;;
70385;SDS011;63206;55.650;37.500;2022-12-11T00:45:09;20.52;;;6.70;;
70385;SDS011;63206;55.650;37.500;2022-12-11T00:47:38;19.05;;;6.30;;
70385;SDS011;63206;55.650;37.500;2022-12-11T00:52:46;17.45;;;6.65;;
70385;SDS011;63206;55.650;37.500;2022-12-11T00:55:15;17.35;;;6.72;;
70385;SDS011;63206;55.650;37.500;2022-12-11T00:57:46;19.45;;;6.82;;
70385;SDS011;63206;55.650;37.500;2022-12-11T01:00:17;22.38;;;6.70;;
70385;SDS011;63206;55.650;37.500;2022-12-11T01:02:46;18.90;;;6.68;;
70385;SDS011;63206;55.650;37.500;2022-12-11T01:05:12;20.23;;;6.88;;
70385;SDS011;63206;55.650;37.500;2022-12-11T01:07:41;20.40;;;7.20;;
70385;SDS011;63206;55.650;37.500;2022-12-11T01:10:13;19.83;;;6.40;;
70385;SDS011;63206;55.650;37.500;2022-12-11T01:12:54;19.70;;;6.43;;
70385;SDS011;63206;55.650;37.500;2022-12-11T01:15:30;19.13;;;6.57;;
70385;SDS011;63206;55.650;37.500;2022-12-11T01:17:56;26.27;;;7.68;;
70385;SDS011;63206;55.650;37.500;2022-12-11T01:20:25;24.88;;;7.53;;
70385;SDS011;63206;55.650;37.500;2022-12-11T01:22:58;24.98;;;6.90;;
70385;SDS011;63206;55.650;37.500;2022-12-11T01:25:30;19.92;;;6.93;;
70385;SDS011;63206;55.650;37.500;2022-12-11T01:27:57;24.98;;;6.55;;
70385;SDS011;63206;55.650;37.500;2022-12-11T01:30:28;19.38;;;6.63;;
70385;SDS011;63206;55.650;37.500;2022-12-11T01:33:00;19.92;;;6.82;;
70385;SDS011;63206;55.650;37.500;2022-12-11T01:35:28;22.75;;;6.32;;
70385;SDS011;63206;55.650;37.500;2022-12-11T01:40:26;19.17;;;6.50;;
70385;SDS011;63206;55.650;37.500;2022-12-11T01:42:58;25.95;;;6.45;;
70385;SDS011;63206;55.650;37.500;2022-12-11T01:45:39;29.35;;;6.43;;
70385;SDS011;63206;55.650;37.500;2022-12-11T01:48:07;20.88;;;6.57;;
70385;SDS011;63206;55.650;37.500;2022-12-11T01:53:20;25.63;;;7.60;;
70385;SDS011;63206;55.650;37.500;2022-12-11T01:55:50;24.77;;;7.55;;
70385;SDS011;63206;55.650;37.500;2022-12-11T01:58:18;23.50;;;7.18;;
70385;SDS011;63206;55.650;37.500;2022-12-11T02:00:50;29.25;;;7.43;;
70385;SDS011;63206;55.650;37.500;2022-12-11T02:03:19;31.70;;;7.80;;
70385;SDS011;63206;55.650;37.500;2022-12-11T02:05:53;28.35;;;7.57;;
70385;SDS011;63206;55.650;37.500;2022-12-11T02:08:25;35.92;;;7.53;;
70385;SDS011;63206;55.650;37.500;2022-12-11T02:13:28;26.77;;;6.78;;
70385;SDS011;63206;55.650;37.500;2022-12-11T02:16:05;28.80;;;6.60;;
70385;SDS011;63206;55.650;37.500;2022-12-11T02:21:12;29.73;;;6.68;;
70385;SDS011;63206;55.650;37.500;2022-12-11T02:23:59;32.75;;;7.68;;
70385;SDS011;63206;55.650;37.500;2022-12-11T02:29:04;30.85;;;7.60;;
70385;SDS011;63206;55.650;37.500;2022-12-11T02:31:38;24.67;;;7.43;;
70385;SDS011;63206;55.650;37.500;2022-12-11T02:37:02;24.30;;;7.20;;
70385;SDS011;63206;55.650;37.500;2022-12-11T02:39:35;29.00;;;8.02;;
70385;SDS011;63206;55.650;37.500;2022-12-11T02:42:06;34.30;;;8.32;;
70385;SDS011;63206;55.650;37.500;2022-12-11T02:44:38;32.17;;;9.00;;
70385;SDS011;63206;55.650;37.500;2022-12-11T02:47:11;35.47;;;9.80;;
70385;SDS011;63206;55.650;37.500;2022-12-11T02:49:47;28.83;;;8.85;;
70385;SDS011;63206;55.650;37.500;2022-12-11T02:52:20;39.15;;;9.52;;
70385;SDS011;63206;55.650;37.500;2022-12-11T02:54:47;38.15;;;10.40;;
70385;SDS011;63206;55.650;37.500;2022-12-11T02:57:24;36.78;;;9.40;;
70385;SDS011;63206;55.650;37.500;2022-12-11T02:59:52;44.95;;;10.90;;
70385;SDS011;63206;55.650;37.500;2022-12-11T03:02:26;27.58;;;9.52;;
70385;SDS011;63206;55.650;37.500;2022-12-11T03:04:58;33.95;;;8.32;;
70385;SDS011;63206;55.650;37.500;2022-12-11T03:07:26;31.83;;;9.43;;
70385;SDS011;63206;55.650;37.500;2022-12-11T03:09:56;36.40;;;9.68;;
70385;SDS011;63206;55.650;37.500;2022-12-11T03:12:23;42.83;;;9.63;;
70385;SDS011;63206;55.650;37.500;2022-12-11T03:14:50;34.25;;;9.80;;
70385;SDS011;63206;55.650;37.500;2022-12-11T03:17:17;43.90;;;11.05;;
70385;SDS011;63206;55.650;37.500;2022-12-11T03:19:49;35.80;;;8.77;;
70385;SDS011;63206;55.650;37.500;2022-12-11T03:22:19;43.83;;;9.63;;
70385;SDS011;63206;55.650;37.500;2022-12-11T03:24:50;29.85;;;8.18;;
70385;SDS011;63206;55.650;37.500;2022-12-11T03:27:37;36.92;;;8.43;;
70385;SDS011;63206;55.650;37.500;2022-12-11T03:30:07;27.60;;;8.07;;
70385;SDS011;63206;55.650;37.500;2022-12-11T03:32:41;37.85;;;9.02;;
70385;SDS011;63206;55.650;37.500;2022-12-11T03:35:12;32.20;;;8.32;;
70385;SDS011;63206;55.650;37.500;2022-12-11T03:37:39;34.60;;;8.75;;
70385;SDS011;63206;55.650;37.500;2022-12-11T03:40:13;25.77;;;7.88;;
70385;SDS011;63206;55.650;37.500;2022-12-11T03:42:41;28.55;;;8.07;;
70385;SDS011;63206;55.650;37.500;2022-12-11T03:45:14;25.05;;;8.15;;
70385;SDS011;63206;55.650;37.500;2022-12-11T03:47:46;38.03;;;8.15;;
70385;SDS011;63206;55.650;37.500;2022-12-11T03:50:18;32.83;;;7.90;;
70385;SDS011;63206;55.650;37.500;2022-12-11T03:52:45;22.92;;;7.32;;
70385;SDS011;63206;55.650;37.500;2022-12-11T03:55:15;29.65;;;9.52;;
70385;SDS011;63206;55.650;37.500;2022-12-11T03:57:44;44.90;;;10.90;;
70385;SDS011;63206;55.650;37.500;2022-12-11T04:00:11;39.92;;;7.75;;
70385;SDS011;63206;55.650;37.500;2022-12-11T04:02:41;32.92;;;7.43;;
70385;SDS011;63206;55.650;37.500;2022-12-11T04:05:10;34.35;;;6.53;;
70385;SDS011;63206;55.650;37.500;2022-12-11T04:07:38;36.45;;;7.15;;
70385;SDS011;63206;55.650;37.500;2022-12-11T04:10:07;26.92;;;7.45;;
70385;SDS011;63206;55.650;37.500;2022-12-11T04:12:33;25.02;;;6.75;;
70385;SDS011;63206;55.650;37.500;2022-12-11T04:14:59;41.28;;;8.48;;
70385;SDS011;63206;55.650;37.500;2022-12-11T04:17:35;28.80;;;7.60;;
70385;SDS011;63206;55.650;37.500;2022-12-11T04:20:22;28.48;;;8.32;;
70385;SDS011;63206;55.650;37.500;2022-12-11T04:23:11;28.88;;;8.52;;
70385;SDS011;63206;55.650;37.500;2022-12-11T04:26:09;24.77;;;8.07;;
70385;SDS011;63206;55.650;37.500;2022-12-11T04:28:35;29.35;;;7.82;;
70385;SDS011;63206;55.650;37.500;2022-12-11T04:31:01;22.83;;;7.50;;
70385;SDS011;63206;55.650;37.500;2022-12-11T04:33:33;26.15;;;7.95;;
70385;SDS011;63206;55.650;37.500;2022-12-11T04:35:59;26.10;;;8.38;;
70385;SDS011;63206;55.650;37.500;2022-12-11T04:38:34;39.08;;;8.00;;
70385;SDS011;63206;55.650;37.500;2022-12-11T04:41:08;23.52;;;8.10;;
70385;SDS011;63206;55.650;37.500;2022-12-11T04:43:35;33.60;;;8.07;;
70385;SDS011;63206;55.650;37.500;2022-12-11T04:46:07;25.63;;;7.30;;
70385;SDS011;63206;55.650;37.500;2022-12-11T04:48:39;29.92;;;7.95;;
70385;SDS011;63206;55.650;37.500;2022-12-11T04:51:10;26.42;;;7.32;;
70385;SDS011;63206;55.650;37.500;2022-12-11T04:53:42;27.35;;;8.25;;
70385;SDS011;63206;55.650;37.500;2022-12-11T04:56:12;44.90;;;9.05;;
70385;SDS011;63206;55.650;37.500;2022-12-11T04:58:43;35.67;;;8.27;;
70385;SDS011;63206;55.650;37.500;2022-12-11T05:01:15;31.17;;;8.30;;
70385;SDS011;63206;55.650;37.500;2022-12-11T05:03:44;33.60;;;8.57;;
70385;SDS011;63206;55.650;37.500;2022-12-11T05:06:13;43.75;;;8.27;;
70385;SDS011;63206;55.650;37.500;2022-12-11T05:08:40;27.30;;;7.93;;
70385;SDS011;63206;55.650;37.500;2022-12-11T05:11:12;31.27;;;8.20;;
70385;SDS011;63206;55.650;37.500;2022-12-11T05:13:41;26.67;;;8.38;;
70385;SDS011;63206;55.650;37.500;2022-12-11T05:16:19;31.08;;;8.00;;
70385;SDS011;63206;55.650;37.500;2022-12-11T05:18:45;23.27;;;8.30;;
70385;SDS011;63206;55.650;37.500;2022-12-11T05:21:12;26.00;;;8.15;;
70385;SDS011;63206;55.650;37.500;2022-12-11T05:23:41;26.25;;;8.38;;
70385;SDS011;63206;55.650;37.500;2022-12-11T05:26:17;29.75;;;8.35;;
70385;SDS011;63206;55.650;37.500;2022-12-11T05:28:49;24.38;;;7.93;;
70385;SDS011;63206;55.650;37.500;2022-12-11T05:31:19;39.38;;;8.88;;
70385;SDS011;63206;55.650;37.500;2022-12-11T05:33:47;25.98;;;9.18;;
70385;SDS011;63206;55.650;37.500;2022-12-11T05:36:15;25.33;;;8.32;;
70385;SDS011;63206;55.650;37.500;2022-12-11T05:38:47;29.40;;;9.57;;
70385;SDS011;63206;55.650;37.500;2022-12-11T05:41:17;24.42;;;8.82;;
70385;SDS011;63206;55.650;37.500;2022-12-11T05:43:49;30.20;;;8.95;;
70385;SDS011;63206;55.650;37.500;2022-12-11T05:46:19;25.08;;;8.50;;
70385;SDS011;63206;55.650;37.500;2022-12-11T05:48:51;21.50;;;8.55;;
70385;SDS011;63206;55.650;37.500;2022-12-11T05:51:21;24.38;;;8.45;;
70385;SDS011;63206;55.650;37.500;2022-12-11T05:53:53;24.17;;;8.60;;
70385;SDS011;63206;55.650;37.500;2022-12-11T05:56:23;23.50;;;9.13;;
70385;SDS011;63206;55.650;37.500;2022-12-11T05:58:56;26.13;;;8.75;;
70385;SDS011;63206;55.650;37.500;2022-12-11T06:01:29;23.27;;;8.43;;
70385;SDS011;63206;55.650;37.500;2022-12-11T06:03:56;26.88;;;9.32;;
70385;SDS011;63206;55.650;37.500;2022-12-11T06:06:22;24.38;;;8.77;;
70385;SDS011;63206;55.650;37.500;2022-12-11T06:08:52;24.20;;;9.10;;
70385;SDS011;63206;55.650;37.500;2022-12-11T06:11:21;26.20;;;8.82;;
70385;SDS011;63206;55.650;37.500;2022-12-11T06:13:50;22.60;;;8.70;;
70385;SDS011;63206;55.650;37.500;2022-12-11T06:16:16;26.42;;;9.02;;
70385;SDS011;63206;55.650;37.500;2022-12-11T06:18:43;27.48;;;9.52;;
70385;SDS011;63206;55.650;37.500;2022-12-11T06:21:16;25.58;;;9.68;;
70385;SDS011;63206;55.650;37.500;2022-12-11T06:23:46;26.73;;;8.88;;
70385;SDS011;63206;55.650;37.500;2022-12-11T06:26:21;26.98;;;9.80;;
70385;SDS011;63206;55.650;37.500;2022-12-11T06:28:50;24.45;;;8.55;;
70385;SDS011;63206;55.650;37.500;2022-12-11T06:31:16;26.33;;;9.90;;
70385;SDS011;63206;55.650;37.500;2022-12-11T06:33:50;24.92;;;8.90;;
70385;SDS011;63206;55.650;37.500;2022-12-11T06:38:44;24.40;;;8.40;;
70385;SDS011;63206;55.650;37.500;2022-12-11T06:41:15;28.80;;;9.15;;
70385;SDS011;63206;55.650;37.500;2022-12-11T06:43:41;26.70;;;9.73;;
70385;SDS011;63206;55.650;37.500;2022-12-11T06:46:13;27.17;;;9.30;;
70385;SDS011;63206;55.650;37.500;2022-12-11T06:48:47;22.98;;;8.27;;
70385;SDS011;63206;55.650;37.500;2022-12-11T06:51:20;29.00;;;10.88;;
70385;SDS011;63206;55.650;37.500;2022-12-11T06:53:53;30.98;;;9.30;;
70385;SDS011;63206;55.650;37.500;2022-12-11T06:56:28;30.15;;;10.52;;
70385;SDS011;63206;55.650;37.500;2022-12-11T06:58:57;27.63;;;10.57;;
70385;SDS011;63206;55.650;37.500;2022-12-11T07:01:25;29.63;;;10.30;;
70385;SDS011;63206;55.650;37.500;2022-12-11T07:03:59;33.58;;;10.88;;
70385;SDS011;63206;55.650;37.500;2022-12-11T07:06:26;28.92;;;9.93;;
70385;SDS011;63206;55.650;37.500;2022-12-11T07:08:52;30.17;;;10.68;;
70385;SDS011;63206;55.650;37.500;2022-12-11T07:11:19;33.42;;;12.02;;
70385;SDS011;63206;55.650;37.500;2022-12-11T07:13:48;32.17;;;11.45;;
70385;SDS011;63206;55.650;37.500;2022-12-11T07:16:15;28.42;;;11.20;;
70385;SDS011;63206;55.650;37.500;2022-12-11T07:18:45;30.77;;;10.27;;
70385;SDS011;63206;55.650;37.500;2022-12-11T07:21:17;28.98;;;9.95;;
70385;SDS011;63206;55.650;37.500;2022-12-11T07:23:50;32.22;;;10.80;;
70385;SDS011;63206;55.650;37.500;2022-12-11T07:26:19;31.23;;;10.82;;
70385;SDS011;63206;55.650;37.500;2022-12-11T07:28:48;29.30;;;10.90;;
70385;SDS011;63206;55.650;37.500;2022-12-11T07:31:15;29.73;;;11.27;;
70385;SDS011;63206;55.650;37.500;2022-12-11T07:33:44;27.83;;;11.10;;
70385;SDS011;63206;55.650;37.500;2022-12-11T07:36:11;36.25;;;12.55;;
70385;SDS011;63206;55.650;37.500;2022-12-11T07:38:40;30.13;;;10.88;;
70385;SDS011;63206;55.650;37.500;2022-12-11T07:41:12;33.22;;;10.90;;
70385;SDS011;63206;55.650;37.500;2022-12-11T07:43:50;31.95;;;11.07;;
70385;SDS011;63206;55.650;37.500;2022-12-11T07:46:17;29.67;;;10.15;;
70385;SDS011;63206;55.650;37.500;2022-12-11T07:48:49;29.35;;;11.52;;
70385;SDS011;63206;55.650;37.500;2022-12-11T07:54:14;31.05;;;10.27;;
70385;SDS011;63206;55.650;37.500;2022-12-11T07:56:53;27.55;;;10.70;;
70385;SDS011;63206;55.650;37.500;2022-12-11T07:59:18;32.65;;;11.52;;
70385;SDS011;63206;55.650;37.500;2022-12-11T08:01:53;30.70;;;10.40;;
70385;SDS011;63206;55.650;37.500;2022-12-11T08:04:22;37.58;;;11.38;;
70385;SDS011;63206;55.650;37.500;2022-12-11T08:06:48;28.42;;;10.88;;
70385;SDS011;63206;55.650;37.500;2022-12-11T08:09:15;28.67;;;11.32;;
70385;SDS011;63206;55.650;37.500;2022-12-11T08:11:52;33.78;;;10.63;;
70385;SDS011;63206;55.650;37.500;2022-12-11T08:14:18;29.33;;;10.02;;
70385;SDS011;63206;55.650;37.500;2022-12-11T08:16:53;25.65;;;9.55;;
70385;SDS011;63206;55.650;37.500;2022-12-11T08:19:24;26.27;;;9.55;;
70385;SDS011;63206;55.650;37.500;2022-12-11T08:21:51;21.17;;;8.73;;
70385;SDS011;63206;55.650;37.500;2022-12-11T08:24:22;27.35;;;10.38;;
70385;SDS011;63206;55.650;37.500;2022-12-11T08:26:51;26.25;;;10.25;;
70385;SDS011;63206;55.650;37.500;2022-12-11T08:29:19;26.98;;;10.55;;
70385;SDS011;63206;55.650;37.500;2022-12-11T08:31:48;25.67;;;10.02;;
70385;SDS011;63206;55.650;37.500;2022-12-11T08:34:20;26.70;;;9.63;;
70385;SDS011;63206;55.650;37.500;2022-12-11T08:36:54;28.25;;;10.48;;
70385;SDS011;63206;55.650;37.500;2022-12-11T08:39:25;26.63;;;10.00;;
70385;SDS011;63206;55.650;37.500;2022-12-11T08:41:58;24.58;;;9.43;;
70385;SDS011;63206;55.650;37.500;2022-12-11T08:44:28;25.27;;;9.07;;
70385;SDS011;63206;55.650;37.500;2022-12-11T08:47:00;25.90;;;9.88;;
70385;SDS011;63206;55.650;37.500;2022-12-11T08:49:32;27.48;;;10.05;;
70385;SDS011;63206;55.650;37.500;2022-12-11T08:52:06;29.27;;;10.73;;
70385;SDS011;63206;55.650;37.500;2022-12-11T08:54:40;29.33;;;10.05;;
70385;SDS011;63206;55.650;37.500;2022-12-11T08:57:12;31.17;;;11.52;;
70385;SDS011;63206;55.650;37.500;2022-12-11T08:59:51;30.38;;;9.98;;
70385;SDS011;63206;55.650;37.500;2022-12-11T09:02:23;28.85;;;10.75;;
70385;SDS011;63206;55.650;37.500;2022-12-11T09:04:54;29.90;;;12.43;;
70385;SDS011;63206;55.650;37.500;2022-12-11T09:07:23;29.98;;;11.15;;
70385;SDS011;63206;55.650;37.500;2022-12-11T09:12:23;32.10;;;10.77;;
70385;SDS011;63206;55.650;37.500;2022-12-11T09:14:54;30.38;;;11.95;;
70385;SDS011;63206;55.650;37.500;2022-12-11T09:17:29;30.52;;;12.07;;
70385;SDS011;63206;55.650;37.500;2022-12-11T09:19:57;28.65;;;12.07;;
70385;SDS011;63206;55.650;37.500;2022-12-11T09:22:30;31.15;;;12.73;;
70385;SDS011;63206;55.650;37.500;2022-12-11T09:25:04;33.13;;;12.45;;
70385;SDS011;63206;55.650;37.500;2022-12-11T09:27:32;35.47;;;11.98;;
70385;SDS011;63206;55.650;37.500;2022-12-11T09:30:01;37.33;;;13.50;;
70385;SDS011;63206;55.650;37.500;2022-12-11T09:32:32;38.58;;;13.18;;
70385;SDS011;63206;55.650;37.500;2022-12-11T09:35:04;35.50;;;13.18;;
70385;SDS011;63206;55.650;37.500;2022-12-11T09:37:35;33.03;;;13.20;;
70385;SDS011;63206;55.650;37.500;2022-12-11T09:40:10;35.35;;;12.98;;
70385;SDS011;63206;55.650;37.500;2022-12-11T09:42:49;35.70;;;12.35;;
70385;SDS011;63206;55.650;37.500;2022-12-11T09:45:20;36.63;;;13.25;;
70385;SDS011;63206;55.650;37.500;2022-12-11T09:47:55;37.20;;;13.98;;
70385;SDS011;63206;55.650;37.500;2022-12-11T09:50:31;37.63;;;13.80;;
70385;SDS011;63206;55.650;37.500;2022-12-11T09:53:07;31.23;;;12.50;;
70385;SDS011;63206;55.650;37.500;2022-12-11T10:03:47;34.97;;;12.73;;
70385;SDS011;63206;55.650;37.500;2022-12-11T10:06:22;31.05;;;12.18;;
70385;SDS011;63206;55.650;37.500;2022-12-11T10:16:51;35.47;;;12.45;;
70385;SDS011;63206;55.650;37.500;2022-12-11T10:19:20;36.05;;;11.98;;
70385;SDS011;63206;55.650;37.500;2022-12-11T10:21:46;32.63;;;12.38;;
70385;SDS011;63206;55.650;37.500;2022-12-11T10:26:45;38.03;;;13.85;;
70385;SDS011;63206;55.650;37.500;2022-12-11T10:29:17;33.00;;;13.32;;
70385;SDS011;63206;55.650;37.500;2022-12-11T10:31:54;36.08;;;13.23;;
70385;SDS011;63206;55.650;37.500;2022-12-11T10:37:01;37.97;;;12.88;;
70385;SDS011;63206;55.650;37.500;2022-12-11T10:39:29;34.65;;;13.25;;
70385;SDS011;63206;55.650;37.500;2022-12-11T10:41:58;34.65;;;12.80;;
70385;SDS011;63206;55.650;37.500;2022-12-11T10:44:30;30.85;;;12.20;;
70385;SDS011;63206;55.650;37.500;2022-12-11T10:47:08;29.77;;;11.68;;
70385;SDS011;63206;55.650;37.500;2022-12-11T10:49:59;32.65;;;12.25;;
70385;SDS011;63206;55.650;37.500;2022-12-11T10:52:47;29.38;;;10.63;;
70385;SDS011;63206;55.650;37.500;2022-12-11T10:55:24;24.92;;;10.05;;
70385;SDS011;63206;55.650;37.500;2022-12-11T10:57:58;24.42;;;10.35;;
70385;SDS011;63206;55.650;37.500;2022-12-11T11:00:29;21.58;;;8.32;;
70385;SDS011;63206;55.650;37.500;2022-12-11T11:02:58;23.35;;;9.38;;
70385;SDS011;63206;55.650;37.500;2022-12-11T11:05:29;22.00;;;9.25;;
70385;SDS011;63206;55.650;37.500;2022-12-11T11:13:19;20.80;;;8.60;;
70385;SDS011;63206;55.650;37.500;2022-12-11T11:15:46;23.58;;;9.85;;
70385;SDS011;63206;55.650;37.500;2022-12-11T11:18:15;25.92;;;9.18;;
70385;SDS011;63206;55.650;37.500;2022-12-11T11:20:46;24.70;;;9.10;;
70385;SDS011;63206;55.650;37.500;2022-12-11T11:23:17;24.92;;;9.30;;
70385;SDS011;63206;55.650;37.500;2022-12-11T11:28:25;22.85;;;9.73;;
70385;SDS011;63206;55.650;37.500;2022-12-11T11:33:21;24.38;;;10.10;;
70385;SDS011;63206;55.650;37.500;2022-12-11T11:36:22;24.30;;;10.18;;
70385;SDS011;63206;55.650;37.500;2022-12-11T11:38:41;24.83;;;10.20;;
70385;SDS011;63206;55.650;37.500;2022-12-11T11:41:14;23.73;;;9.60;;
70385;SDS011;63206;55.650;37.500;2022-12-11T11:43:45;25.70;;;10.48;;
70385;SDS011;63206;55.650;37.500;2022-12-11T11:51:14;24.13;;;9.90;;
70385;SDS011;63206;55.650;37.500;2022-12-11T11:53:42;23.17;;;8.95;;
70385;SDS011;63206;55.650;37.500;2022-12-11T11:56:20;24.52;;;10.05;;
70385;SDS011;63206;55.650;37.500;2022-12-11T12:01:20;23.15;;;10.15;;
70385;SDS011;63206;55.650;37.500;2022-12-11T12:03:47;21.48;;;9.20;;
70385;SDS011;63206;55.650;37.500;2022-12-11T12:11:32;22.38;;;9.20;;
70385;SDS011;63206;55.650;37.500;2022-12-11T12:14:14;19.83;;;8.38;;
70385;SDS011;63206;55.650;37.500;2022-12-11T12:16:57;20.65;;;8.63;;
70385;SDS011;63206;55.650;37.500;2022-12-11T12:19:36;21.05;;;8.25;;
70385;SDS011;63206;55.650;37.500;2022-12-11T12:22:31;22.30;;;8.70;;
70385;SDS011;63206;55.650;37.500;2022-12-11T12:27:27;22.45;;;9.32;;
70385;SDS011;63206;55.650;37.500;2022-12-11T12:30:07;23.23;;;9.07;;
70385;SDS011;63206;55.650;37.500;2022-12-11T12:38:04;18.30;;;7.88;;
70385;SDS011;63206;55.650;37.500;2022-12-11T12:48:51;15.95;;;6.93;;
70385;SDS011;63206;55.650;37.500;2022-12-11T12:51:21;18.95;;;7.65;;
70385;SDS011;63206;55.650;37.500;2022-12-11T12:53:56;19.60;;;7.72;;
70385;SDS011;63206;55.650;37.500;2022-12-11T12:56:26;16.90;;;7.28;;
70385;SDS011;63206;55.650;37.500;2022-12-11T12:58:58;17.23;;;7.20;;
70385;SDS011;63206;55.650;37.500;2022-12-11T13:01:25;17.83;;;7.70;;
70385;SDS011;63206;55.650;37.500;2022-12-11T13:06:33;19.13;;;8.88;;
70385;SDS011;63206;55.650;37.500;2022-12-11T13:09:12;17.52;;;8.18;;
70385;SDS011;63206;55.650;37.500;2022-12-11T13:11:42;17.20;;;7.43;;
70385;SDS011;63206;55.650;37.500;2022-12-11T13:16:41;16.30;;;7.70;;
70385;SDS011;63206;55.650;37.500;2022-12-11T13:27:25;14.50;;;6.53;;
70385;SDS011;63206;55.650;37.500;2022-12-11T13:30:02;13.23;;;6.05;;
70385;SDS011;63206;55.650;37.500;2022-12-11T13:32:35;14.73;;;5.85;;
70385;SDS011;63206;55.650;37.500;2022-12-11T13:35:03;14.20;;;6.07;;
70385;SDS011;63206;55.650;37.500;2022-12-11T13:37:33;15.05;;;6.45;;
70385;SDS011;63206;55.650;37.500;2022-12-11T13:40:08;15.65;;;6.20;;
70385;SDS011;63206;55.650;37.500;2022-12-11T13:42:46;13.13;;;5.90;;
70385;SDS011;63206;55.650;37.500;2022-12-11T13:47:48;11.77;;;5.40;;
70385;SDS011;63206;55.650;37.500;2022-12-11T13:50:19;12.38;;;5.85;;
70385;SDS011;63206;55.650;37.500;2022-12-11T13:52:57;12.60;;;5.28;;
70385;SDS011;63206;55.650;37.500;2022-12-11T13:55:25;10.27;;;5.25;;
70385;SDS011;63206;55.650;37.500;2022-12-11T13:57:52;13.38;;;5.88;;
70385;SDS011;63206;55.650;37.500;2022-12-11T14:00:20;16.02;;;5.90;;
70385;SDS011;63206;55.650;37.500;2022-12-11T14:02:46;16.05;;;5.25;;
70385;SDS011;63206;55.650;37.500;2022-12-11T14:05:13;13.13;;;5.28;;
70385;SDS011;63206;55.650;37.500;2022-12-11T14:07:45;13.13;;;5.18;;
70385;SDS011;63206;55.650;37.500;2022-12-11T14:10:17;16.75;;;5.53;;
70385;SDS011;63206;55.650;37.500;2022-12-11T14:12:46;12.50;;;5.43;;
70385;SDS011;63206;55.650;37.500;2022-12-11T14:15:14;13.27;;;5.60;;
70385;SDS011;63206;55.650;37.500;2022-12-11T14:17:40;11.65;;;5.60;;
70385;SDS011;63206;55.650;37.500;2022-12-11T14:20:24;14.75;;;5.13;;
70385;SDS011;63206;55.650;37.500;2022-12-11T14:25:40;14.18;;;5.78;;
70385;SDS011;63206;55.650;37.500;2022-12-11T14:28:14;13.52;;;5.55;;
70385;SDS011;63206;55.650;37.500;2022-12-11T14:30:48;12.45;;;5.35;;
70385;SDS011;63206;55.650;37.500;2022-12-11T14:33:21;15.27;;;5.63;;
70385;SDS011;63206;55.650;37.500;2022-12-11T14:35:47;12.55;;;5.30;;
70385;SDS011;63206;55.650;37.500;2022-12-11T14:38:28;13.25;;;5.72;;
70385;SDS011;63206;55.650;37.500;2022-12-11T14:40:58;13.40;;;5.38;;
70385;SDS011;63206;55.650;37.500;2022-12-11T14:43:32;13.88;;;5.22;;
70385;SDS011;63206;55.650;37.500;2022-12-11T14:46:06;14.02;;;5.57;;
70385;SDS011;63206;55.650;37.500;2022-12-11T14:48:37;12.32;;;4.95;;
70385;SDS011;63206;55.650;37.500;2022-12-11T14:51:06;12.13;;;5.03;;
70385;SDS011;63206;55.650;37.500;2022-12-11T14:53:43;14.23;;;4.97;;
70385;SDS011;63206;55.650;37.500;2022-12-11T14:56:15;14.48;;;5.75;;
70385;SDS011;63206;55.650;37.500;2022-12-11T14:58:58;13.48;;;5.78;;
70385;SDS011;63206;55.650;37.500;2022-12-11T15:01:35;15.50;;;5.97;;
70385;SDS011;63206;55.650;37.500;2022-12-11T15:04:05;15.00;;;5.75;;
70385;SDS011;63206;55.650;37.500;2022-12-11T15:06:41;14.35;;;5.57;;
70385;SDS011;63206;55.650;37.500;2022-12-11T15:12:13;13.57;;;4.45;;
70385;SDS011;63206;55.650;37.500;2022-12-11T15:14:47;12.18;;;5.20;;
70385;SDS011;63206;55.650;37.500;2022-12-11T15:17:14;13.02;;;5.45;;
70385;SDS011;63206;55.650;37.500;2022-12-11T15:19:40;14.82;;;6.15;;
70385;SDS011;63206;55.650;37.500;2022-12-11T15:22:14;13.43;;;5.40;;
70385;SDS011;63206;55.650;37.500;2022-12-11T15:24:44;14.18;;;6.00;;
70385;SDS011;63206;55.650;37.500;2022-12-11T15:27:22;12.40;;;5.95;;
70385;SDS011;63206;55.650;37.500;2022-12-11T15:29:51;13.80;;;5.90;;
70385;SDS011;63206;55.650;37.500;2022-12-11T15:32:20;14.13;;;5.60;;
70385;SDS011;63206;55.650;37.500;2022-12-11T15:39:52;12.48;;;5.72;;
70385;SDS011;63206;55.650;37.500;2022-12-11T15:42:31;12.85;;;5.15;;
70385;SDS011;63206;55.650;37.500;2022-12-11T15:45:02;12.20;;;5.63;;
70385;SDS011;63206;55.650;37.500;2022-12-11T15:47:38;13.73;;;5.78;;
70385;SDS011;63206;55.650;37.500;2022-12-11T15:50:17;14.55;;;5.93;;
70385;SDS011;63206;55.650;37.500;2022-12-11T15:52:49;13.63;;;5.93;;
70385;SDS011;63206;55.650;37.500;2022-12-11T15:55:15;14.77;;;6.03;;
70385;SDS011;63206;55.650;37.500;2022-12-11T15:57:44;13.75;;;5.43;;
70385;SDS011;63206;55.650;37.500;2022-12-11T16:00:17;12.30;;;5.57;;
70385;SDS011;63206;55.650;37.500;2022-12-11T16:02:46;15.10;;;6.20;;
70385;SDS011;63206;55.650;37.500;2022-12-11T16:05:12;15.82;;;6.20;;
70385;SDS011;63206;55.650;37.500;2022-12-11T16:07:41;12.80;;;5.95;;
70385;SDS011;63206;55.650;37.500;2022-12-11T16:10:11;16.45;;;6.43;;
70385;SDS011;63206;55.650;37.500;2022-12-11T16:12:38;12.88;;;5.85;;
70385;SDS011;63206;55.650;37.500;2022-12-11T16:15:04;13.25;;;5.18;;
70385;SDS011;63206;55.650;37.500;2022-12-11T16:17:30;13.98;;;6.05;;
70385;SDS011;63206;55.650;37.500;2022-12-11T16:19:59;12.80;;;5.63;;
70385;SDS011;63206;55.650;37.500;2022-12-11T16:22:25;11.57;;;5.38;;
70385;SDS011;63206;55.650;37.500;2022-12-11T16:24:52;11.80;;;4.93;;
70385;SDS011;63206;55.650;37.500;2022-12-11T16:27:19;12.75;;;5.30;;
70385;SDS011;63206;55.650;37.500;2022-12-11T16:29:45;12.15;;;4.65;;
70385;SDS011;63206;55.650;37.500;2022-12-11T16:32:14;11.48;;;4.80;;
70385;SDS011;63206;55.650;37.500;2022-12-11T16:34:39;13.98;;;4.90;;
70385;SDS011;63206;55.650;37.500;2022-12-11T16:37:06;11.23;;;4.50;;
70385;SDS011;63206;55.650;37.500;2022-12-11T16:39:36;10.40;;;4.60;;
70385;SDS011;63206;55.650;37.500;2022-12-11T16:42:02;9.23;;;3.95;;